AIRPORT_AIRPORT_METAR
METAR FOR KMHV
ADDS - METARS form results

(1516 UTC 25 May 2022)
Data provider http://aviationweather.gov/metar/data/
 
METAR text: KMHV 251440Z AUTO 09004KT 10SM CLR 26/00 A2994 RMK A01
Conditions at: KMHV (MOJAVE , CA, US) observed 1440 UTC 25 May 2022
Temperature: 26.0°C (79°F)
Dewpoint: 0.0°C (32°F) [RH = 18%]
Pressure (altimeter): 29.94 inches Hg (1014.0 mb)
Winds: from the E (90 degrees) at 5 MPH (4 knots; 2.1 m/s)
Visibility: 10 or more miles (16+ km)
Ceiling: at least 12,000 feet AGL
Clouds: sky clear below 12,000 feet AGL
Weather: automated observation with no human augmentation;
there may or may not be significant weather present at this time

METAR text: KMHV 251420Z AUTO 00000KT 9SM 24/01 A2994 RMK A01
Conditions at: KMHV (MOJAVE , CA, US) observed 1420 UTC 25 May 2022
Temperature: 24.0°C (75°F)
Dewpoint: 1.0°C (34°F) [RH = 22%]
Pressure (altimeter): 29.94 inches Hg (1014.0 mb)
Winds: calm
Visibility: 9 miles (14 km)
Ceiling: unknown
Clouds: missing
Weather: automated observation with no human augmentation;
there may or may not be significant weather present at this time

 AIRPORT_AIRPORT_MAP

 AIRPORT_RUNWAY_INFO
AIRPORT_RUNWAY 04 AIRPORT_RUNWAY_LENGTH 4743 ft AIRPORT_RUNWAY_WIDTH 50 ft
AIRPORT_RUNWAY_ELEVATION 2778 ft AIRPORT_RUNWAY_THRESHOLD 0 ft AIRPORT_RUNWAY_HEADING 52
AIRPORT_RUNWAY 22 AIRPORT_RUNWAY_LENGTH 4743 ft AIRPORT_RUNWAY_WIDTH 50 ft
AIRPORT_RUNWAY_ELEVATION 2779 ft AIRPORT_RUNWAY_THRESHOLD 800 ft AIRPORT_RUNWAY_HEADING 232
AIRPORT_RUNWAY 08 AIRPORT_RUNWAY_LENGTH 7050 ft AIRPORT_RUNWAY_WIDTH 100 ft
AIRPORT_RUNWAY_ELEVATION 2777 ft AIRPORT_RUNWAY_THRESHOLD 0 ft AIRPORT_RUNWAY_HEADING 90
AIRPORT_RUNWAY 26 AIRPORT_RUNWAY_LENGTH 7050 ft AIRPORT_RUNWAY_WIDTH 100 ft
AIRPORT_RUNWAY_ELEVATION 2751 ft AIRPORT_RUNWAY_THRESHOLD 0 ft AIRPORT_RUNWAY_HEADING 270
AIRPORT_RUNWAY 12 AIRPORT_RUNWAY_LENGTH 9502 ft AIRPORT_RUNWAY_WIDTH 200 ft
AIRPORT_RUNWAY_ELEVATION 2791 ft AIRPORT_RUNWAY_THRESHOLD 0 ft AIRPORT_RUNWAY_HEADING 135
AIRPORT_RUNWAY 30 AIRPORT_RUNWAY_LENGTH 9502 ft AIRPORT_RUNWAY_WIDTH 200 ft
AIRPORT_RUNWAY_ELEVATION 2693 ft AIRPORT_RUNWAY_THRESHOLD 0 ft AIRPORT_RUNWAY_HEADING 315

 AIRPORT_AIRPORT_FREQUENCIES
AIRPORT_AIRPORT_NAVAIDS_TYPE A/D AIRPORT_AIRPORT_NAVAIDS_NAME JOSHUA APP AIRPORT_AIRPORT_NAVAIDS_FREQ 133.65 MHZ
AIRPORT_AIRPORT_NAVAIDS_TYPE CTAF AIRPORT_AIRPORT_NAVAIDS_NAME CTAF AIRPORT_AIRPORT_NAVAIDS_FREQ 127.6 MHZ
AIRPORT_AIRPORT_NAVAIDS_TYPE GND AIRPORT_AIRPORT_NAVAIDS_NAME GND AIRPORT_AIRPORT_NAVAIDS_FREQ 123.9 MHZ
AIRPORT_AIRPORT_NAVAIDS_TYPE TWR AIRPORT_AIRPORT_NAVAIDS_NAME TWR AIRPORT_AIRPORT_NAVAIDS_FREQ 127.6 MHZ

 AIRPORT_AIRPORT_NAVAIDS



Copyright © 2005-2021 - Virtuel Air Alsace - Tous droits réservés